Terminal Aerodrome Forecast
Issued by NWS Wilmington, OH

Home | Current Version | Previous Version | Text Only | Print | Product List | Glossary On
Versions: 1 2 3 4 5 6 7 8 9 10 11 12 13 14 15 16 17 18 19 20 21 22 23 24 25 26
545
FTUS41 KILN 121229 AAA
TAFCVG
TAF AMD
KCVG 121229Z 1212/1318 31016G24KT P6SM BKN015 OVC035
      TEMPO 1213/1215 3SM -SHSN OVC010
     FM121800 31017G25KT P6SM BKN040
     FM122300 30012KT P6SM SCT040
     FM130300 28007KT P6SM SKC
     FM131000 22005KT P6SM SCT100
     FM131400 19010KT P6SM BKN100=

USA.gov is the U.S. government's official web portal to all federal, state and local government web resources and services.